createdAt,value
2022-09-23T00:15:33.296Z,96620.13
2022-09-23T00:18:57.745Z,96619.85
2022-09-23T00:22:28.652Z,96617.55
2022-09-23T00:25:51.644Z,96617.20
2022-09-23T00:43:06.831Z,96610.12
2022-09-23T00:46:34.699Z,96610.55
2022-09-23T01:03:33.717Z,96598.89
2022-09-23T01:07:22.807Z,96600.19
2022-09-23T01:25:14.618Z,96596.54
2022-09-23T01:28:47.406Z,96591.65
2022-09-23T01:31:59.497Z,96594.11
2022-09-23T01:39:25.353Z,96590.33
2022-09-23T01:43:03.809Z,96587.88
2022-09-23T01:46:29.333Z,96589.84
2022-09-23T02:00:46.855Z,96586.07
2022-09-23T02:04:09.449Z,96586.72
2022-09-23T02:07:46.324Z,96583.75
2022-09-23T02:21:50.599Z,96582.66
2022-09-23T02:25:19.952Z,96588.66
2022-09-23T02:29:10.415Z,96585.30
2022-09-23T02:48:07.220Z,96577.04
2022-09-23T02:51:09.294Z,96582.05
2022-09-23T02:54:28.758Z,96574.86
2022-09-23T02:57:38.977Z,96576.98
2022-09-23T03:01:36.887Z,96582.77
2022-09-23T03:22:48.295Z,96574.70
2022-09-23T03:26:17.479Z,96577.58
2022-09-23T03:29:30.920Z,96575.52
2022-09-23T03:53:56.453Z,96569.21
2022-09-23T03:57:06.916Z,96568.83
2022-09-23T04:00:37.723Z,96567.08
2022-09-23T04:17:48.735Z,96561.56
2022-09-23T04:21:20.582Z,96566.48
2022-09-23T04:24:30.934Z,96564.48
2022-09-23T04:27:43.203Z,96565.54
2022-09-23T04:30:48.975Z,96563.98
2022-09-23T05:41:08.494Z,96585.33
2022-09-23T05:44:48.722Z,96592.13
2022-09-23T05:56:41.360Z,96594.42
2022-09-23T06:00:18.104Z,96597.63
2022-09-23T06:04:06.995Z,96595.70
2022-09-23T11:45:30.508Z,96505.38
2022-09-23T11:48:46.040Z,96506.66
2022-09-23T11:51:32.097Z,96505.85
2022-09-23T11:54:06.005Z,96499.43
2022-09-23T11:56:41.666Z,96498.39
2022-09-23T11:59:38.081Z,96502.79
2022-09-23T12:02:20.858Z,96503.31
2022-09-23T12:05:03.259Z,96500.40
2022-09-23T12:07:45.087Z,96498.48
2022-09-23T12:10:14.377Z,96494.77
2022-09-23T12:12:49.088Z,96496.02
2022-09-23T12:15:51.468Z,96493.84
2022-09-23T12:18:54.178Z,96491.64
2022-09-23T12:21:49.409Z,96488.80
2022-09-23T12:24:43.905Z,96485.14
2022-09-23T12:27:28.044Z,96484.03
2022-09-23T12:30:01.692Z,96483.23
2022-09-23T12:32:31.048Z,96477.90
2022-09-23T12:35:00.596Z,96476.42
2022-09-23T12:37:35.308Z,96473.96
2022-09-23T12:40:19.159Z,96470.14
2022-09-23T12:42:48.597Z,96467.85
2022-09-23T12:45:35.527Z,96465.27
2022-09-23T12:48:43.309Z,96459.90
2022-09-23T12:51:20.406Z,96460.55
2022-09-23T12:53:50.773Z,96456.16
2022-09-23T12:56:18.887Z,96454.66
2022-09-23T12:58:46.938Z,96453.27
2022-09-23T13:01:15.370Z,96450.70
2022-09-23T13:04:08.971Z,96444.52
2022-09-23T13:07:06.018Z,96441.99
2022-09-23T13:09:43.405Z,96444.22
2022-09-23T13:12:33.456Z,96443.33
2022-09-23T13:15:06.387Z,96441.91
2022-09-23T13:17:37.685Z,96444.73
2022-09-23T13:20:43.585Z,96444.10
2022-09-23T13:23:12.830Z,96444.11
2022-09-23T13:25:43.380Z,96439.21
2022-09-23T13:28:58.657Z,96434.23
2022-09-23T13:31:26.854Z,96431.89
2022-09-23T13:35:01.259Z,96427.94
2022-09-23T13:37:48.539Z,96424.63
2022-09-23T13:40:20.752Z,96425.25
2022-09-23T13:42:55.470Z,96422.80
2022-09-23T13:45:25.943Z,96418.69
2022-09-23T13:48:01.055Z,96417.23
2022-09-23T13:50:34.232Z,96416.78
2022-09-23T13:53:10.556Z,96413.02
2022-09-23T13:55:40.194Z,96409.98
2022-09-23T13:58:22.549Z,96407.38
2022-09-23T14:00:51.610Z,96404.89
2022-09-23T14:03:36.521Z,96398.83
2022-09-23T14:06:11.474Z,96395.41
2022-09-23T14:08:43.145Z,96393.95
2022-09-23T14:11:30.164Z,96396.01
2022-09-23T14:14:00.634Z,96394.02
2022-09-23T14:16:29.797Z,96393.90
2022-09-23T14:19:00.488Z,96390.13
2022-09-23T14:21:30.276Z,96390.14
2022-09-23T14:24:11.242Z,96388.50
2022-09-23T14:26:40.760Z,96390.87
2022-09-23T14:29:18.864Z,96386.23
2022-09-23T14:31:57.107Z,96389.96
2022-09-23T14:34:44.051Z,96387.44
2022-09-23T14:37:36.994Z,96388.39
2022-09-23T14:40:15.283Z,96386.76
2022-09-23T14:42:48.292Z,96386.30
2022-09-23T14:45:22.982Z,96384.77
2022-09-23T14:48:00.148Z,96387.19
2022-09-23T14:50:37.304Z,96382.34
2022-09-23T14:53:18.640Z,96378.84
2022-09-23T14:55:47.926Z,96373.53
2022-09-23T14:58:18.336Z,96373.08
2022-09-23T15:00:58.716Z,96372.24
2022-09-23T15:03:28.721Z,96375.35
2022-09-23T15:06:09.309Z,96376.89
2022-09-23T15:08:37.413Z,96380.90
2022-09-23T15:11:08.377Z,96379.00
2022-09-23T15:13:46.721Z,96385.15
2022-09-23T15:16:16.671Z,96382.11
2022-09-23T15:18:46.343Z,96377.48
2022-09-23T15:21:18.551Z,96374.77
2022-09-23T15:23:49.101Z,96374.24
2022-09-23T15:26:25.860Z,96373.41
2022-09-23T15:28:58.684Z,96374.71
2022-09-23T15:31:26.958Z,96376.40
2022-09-23T15:33:56.103Z,96374.84
2022-09-23T15:36:27.915Z,96372.34
2022-09-23T15:38:57.506Z,96369.70
2022-09-23T15:41:25.592Z,96370.91
2022-09-23T15:43:56.491Z,96367.12
2022-09-23T15:46:27.698Z,96373.89
2022-09-23T15:49:03.101Z,96365.23
2022-09-23T15:51:32.097Z,96365.89
2022-09-23T15:54:00.150Z,96366.58
2022-09-23T15:56:28.168Z,96367.75
2022-09-23T15:58:56.146Z,96371.81
2022-09-23T16:01:28.782Z,96371.31
2022-09-23T16:03:57.720Z,96370.89
2022-09-23T16:06:27.203Z,96373.12
2022-09-23T16:08:55.771Z,96370.32
2022-09-23T16:11:30.019Z,96370.88
2022-09-23T16:14:00.548Z,96373.25
2022-09-23T16:16:28.987Z,96381.98
2022-09-23T16:18:57.223Z,96385.01
2022-09-23T16:21:28.142Z,96380.96
2022-09-23T16:23:59.436Z,96382.67
2022-09-23T16:26:33.089Z,96382.02
2022-09-23T16:29:01.904Z,96382.45
2022-09-23T16:31:31.326Z,96381.50
2022-09-23T16:34:02.523Z,96382.89
2022-09-23T16:36:33.281Z,96381.79
2022-09-23T16:39:08.825Z,96382.84
2022-09-23T16:41:37.242Z,96382.33
2022-09-23T16:44:07.656Z,96382.54
2022-09-23T16:46:35.955Z,96378.48
2022-09-23T16:49:04.521Z,96375.69
2022-09-23T16:51:40.224Z,96373.05
2022-09-23T16:54:10.952Z,96377.02
2022-09-23T16:56:45.875Z,96374.83
2022-09-23T16:59:15.172Z,96376.52
2022-09-23T17:02:02.297Z,96373.18
2022-09-23T17:04:30.464Z,96374.30
2022-09-23T17:06:59.264Z,96373.80
2022-09-23T17:09:29.097Z,96370.88
2022-09-23T17:12:13.831Z,96374.60
2022-09-23T17:14:41.915Z,96376.23
2022-09-23T17:17:09.952Z,96376.12
2022-09-23T17:19:41.566Z,96374.72
2022-09-23T17:22:10.085Z,96373.45
2022-09-23T17:24:38.066Z,96372.42
2022-09-23T17:27:06.128Z,96372.96
2022-09-23T17:29:34.270Z,96377.09
2022-09-23T17:32:02.723Z,96374.86
2022-09-23T17:34:33.466Z,96378.80
2022-09-23T17:37:02.701Z,96382.77
2022-09-23T17:39:31.848Z,96382.44
2022-09-23T17:41:59.896Z,96384.08
2022-09-23T17:44:27.909Z,96383.48
2022-09-23T17:46:55.980Z,96383.22
2022-09-23T17:49:24.665Z,96390.20
2022-09-23T17:51:52.619Z,96390.92
2022-09-23T17:54:20.666Z,96387.61
2022-09-23T17:56:48.660Z,96390.96
2022-09-23T17:59:17.271Z,96387.88
2022-09-23T18:01:45.409Z,96395.34
2022-09-23T18:04:13.457Z,96395.98
2022-09-23T18:06:41.652Z,96393.20
2022-09-23T18:09:10.486Z,96393.04
2022-09-23T18:11:41.471Z,96393.73
2022-09-23T18:14:15.975Z,96392.45
2022-09-23T18:16:46.785Z,96390.41
2022-09-23T18:19:17.377Z,96388.56
2022-09-23T18:21:51.440Z,96387.66
2022-09-23T18:24:31.805Z,96390.54
2022-09-23T18:27:01.598Z,96387.90
2022-09-23T18:29:29.708Z,96387.73
2022-09-23T18:31:59.547Z,96389.11
2022-09-23T18:34:29.200Z,96388.11
2022-09-23T18:36:57.256Z,96388.55
2022-09-23T18:39:25.409Z,96384.39
2022-09-23T18:41:53.493Z,96383.89
2022-09-23T18:44:21.594Z,96382.16
2022-09-23T18:46:49.696Z,96381.73
2022-09-23T18:49:36.283Z,96380.96
2022-09-23T18:52:04.157Z,96381.74
2022-09-23T18:54:32.396Z,96379.92
2022-09-23T18:57:00.817Z,96379.16
2022-09-23T18:59:29.856Z,96380.15
2022-09-23T19:01:59.215Z,96377.70
2022-09-23T19:04:27.838Z,96378.76
2022-09-23T19:06:57.315Z,96383.91
2022-09-23T19:09:25.972Z,96388.20
2022-09-23T19:11:54.126Z,96393.23
2022-09-23T19:14:22.416Z,96395.56
2022-09-23T19:16:51.049Z,96394.61
2022-09-23T19:19:19.375Z,96393.95
2022-09-23T19:21:47.497Z,96387.39
2022-09-23T19:24:20.171Z,96387.38
2022-09-23T19:26:48.989Z,96388.52
2022-09-23T19:29:19.792Z,96388.25
2022-09-23T19:31:48.865Z,96385.59
2022-09-23T19:34:26.174Z,96387.77
2022-09-23T19:36:57.491Z,96390.40
2022-09-23T19:39:28.457Z,96388.71
2022-09-23T19:41:56.561Z,96391.04
2022-09-23T19:44:26.933Z,96391.95
2022-09-23T19:46:57.546Z,96390.89
2022-09-23T19:49:26.025Z,96388.28
2022-09-23T19:51:56.191Z,96386.44
2022-09-23T19:54:27.659Z,96386.98
2022-09-23T19:56:56.152Z,96385.75
2022-09-23T19:59:26.603Z,96388.71
2022-09-23T20:01:55.191Z,96388.77
2022-09-23T20:04:23.557Z,96388.48
2022-09-23T20:06:51.986Z,96388.56
2022-09-23T20:09:20.278Z,96383.25
2022-09-23T20:11:48.411Z,96379.71
2022-09-23T20:14:17.412Z,96378.83
2022-09-23T20:16:46.404Z,96378.95
2022-09-23T20:19:14.933Z,96376.60
2022-09-23T20:21:43.013Z,96376.99
2022-09-23T20:24:12.387Z,96375.73
2022-09-23T20:26:59.052Z,96379.70
2022-09-23T20:29:27.230Z,96381.31
2022-09-23T20:31:57.086Z,96379.74
2022-09-23T20:34:25.189Z,96376.48
2022-09-23T20:36:53.275Z,96372.60
2022-09-23T20:39:21.950Z,96375.70
2022-09-23T20:41:50.580Z,96374.37
2022-09-23T20:44:18.677Z,96369.05
2022-09-23T20:46:48.948Z,96373.88
2022-09-23T20:49:17.809Z,96373.52
2022-09-23T20:51:48.343Z,96376.98
2022-09-23T20:54:21.048Z,96375.02
2022-09-23T20:56:49.062Z,96372.36
2022-09-23T20:59:18.405Z,96372.25
2022-09-23T21:01:46.895Z,96372.50
2022-09-23T21:04:15.373Z,96373.10
2022-09-23T21:06:43.428Z,96371.25
2022-09-23T21:09:11.606Z,96372.78
2022-09-23T21:11:39.638Z,96371.44
2022-09-23T21:14:07.875Z,96369.98
2022-09-23T21:16:36.146Z,96371.77
2022-09-23T21:19:04.307Z,96365.91
2022-09-23T21:21:32.303Z,96367.63
2022-09-23T21:24:23.683Z,96368.52
2022-09-23T21:26:50.587Z,96365.72
2022-09-23T21:29:18.689Z,96366.52
2022-09-23T21:31:50.058Z,96367.84
2022-09-23T21:34:19.361Z,96371.48
2022-09-23T21:36:48.195Z,96374.32
2022-09-23T21:39:16.740Z,96371.21
2022-09-23T21:41:45.090Z,96368.16
2022-09-23T21:44:13.258Z,96369.13
2022-09-23T21:46:41.586Z,96366.06
2022-09-23T21:49:09.955Z,96365.41
2022-09-23T21:51:43.359Z,96367.67
2022-09-23T21:54:17.230Z,96365.33
2022-09-23T21:56:45.443Z,96365.52
2022-09-23T21:59:13.437Z,96367.67
2022-09-23T22:01:45.198Z,96367.80
2022-09-23T22:04:18.180Z,96367.94
2022-09-23T22:06:46.906Z,96372.40
2022-09-23T22:09:17.967Z,96375.36
2022-09-23T22:12:05.092Z,96372.28
2022-09-23T22:14:34.270Z,96374.36
2022-09-23T22:17:05.308Z,96373.52
2022-09-23T22:19:40.299Z,96374.13
2022-09-23T22:22:13.253Z,96372.97
2022-09-23T22:24:42.881Z,96366.31
2022-09-23T22:27:13.357Z,96368.48
2022-09-23T22:30:00.331Z,96362.96
2022-09-23T22:32:54.240Z,96362.24
2022-09-23T22:35:23.258Z,96362.74
2022-09-23T22:37:51.473Z,96359.66
2022-09-23T22:40:19.572Z,96358.58
2022-09-23T22:42:48.608Z,96357.84
2022-09-23T22:45:16.791Z,96355.38
2022-09-23T22:47:46.023Z,96352.35
2022-09-23T22:50:14.839Z,96354.16
2022-09-23T22:52:43.423Z,96359.92
2022-09-23T22:55:12.670Z,96361.28
2022-09-23T22:57:40.984Z,96358.49
2022-09-23T23:00:12.738Z,96358.27
2022-09-23T23:02:42.545Z,96357.84
2022-09-23T23:05:11.275Z,96351.15
2022-09-23T23:07:39.249Z,96347.61
2022-09-23T23:10:10.607Z,96347.67
2022-09-23T23:12:39.706Z,96343.62
2022-09-23T23:15:12.146Z,96346.41
2022-09-23T23:17:41.434Z,96342.27
2022-09-23T23:20:09.664Z,96339.46
2022-09-23T23:22:37.731Z,96336.17
2022-09-23T23:25:06.274Z,96333.96
2022-09-23T23:27:34.735Z,96336.07
2022-09-23T23:30:02.853Z,96334.19
2022-09-23T23:32:31.268Z,96328.99
2022-09-23T23:34:59.236Z,96325.34
2022-09-23T23:37:29.416Z,96327.41
2022-09-23T23:39:57.485Z,96326.19
2022-09-23T23:42:27.237Z,96321.71
2022-09-23T23:44:55.341Z,96321.95
2022-09-23T23:47:24.134Z,96320.41
2022-09-23T23:49:52.563Z,96322.49
2022-09-23T23:52:20.668Z,96319.91
2022-09-23T23:54:48.758Z,96318.54
2022-09-23T23:57:16.699Z,96318.06
2022-09-23T23:59:44.683Z,96314.27
